BIAR

Akureyri Airport

Akureyri, Iceland

BIAR 221800Z 34011KT CAVOK 12/08 Q1020

Observed Flight Rules
Aug-22 @ 18:00 UTC (47 minutes ago)
 
Visual Flight Rules
Wind Visibility Clouds
340° at 11 knots 10,000+ meters
  • Clear skies
Temperatures Readings
Current 12°C / 54°F
Dewpoint 8°C / 46°F
Humidity 77%
Altimeter 30.12" Hg
Pressure 1020 hPa
Elevation 27
Observed Flight Rules
Aug-22 @ 18:00 UTC
(47 minutes ago)
 
VFR
Wind Visibility
340° at 11 knots 10,000+ meters
Clouds
  • Clear skies
Temperature Dewpoint
12°C / 54°F 8°C / 46°F
Humidity Altimeter Pressure
77% 30.12" Hg 1020 hPa